sensor_id;sensor_type;location;lat;lon;timestamp;P1;durP1;ratioP1;P2;durP2;ratioP2
64052;SDS011;50299;49.524;8.536;2023-08-12T00:00:57;6.85;;;5.50;;
64052;SDS011;50299;49.524;8.536;2023-08-12T00:03:23;7.05;;;6.35;;
64052;SDS011;50299;49.524;8.536;2023-08-12T00:05:50;6.65;;;6.13;;
64052;SDS011;50299;49.524;8.536;2023-08-12T00:08:16;6.47;;;5.97;;
64052;SDS011;50299;49.524;8.536;2023-08-12T00:10:43;5.95;;;5.53;;
64052;SDS011;50299;49.524;8.536;2023-08-12T00:13:09;6.63;;;6.03;;
64052;SDS011;50299;49.524;8.536;2023-08-12T00:15:36;6.57;;;5.85;;
64052;SDS011;50299;49.524;8.536;2023-08-12T00:18:02;5.95;;;5.40;;
64052;SDS011;50299;49.524;8.536;2023-08-12T00:20:32;5.97;;;5.20;;
64052;SDS011;50299;49.524;8.536;2023-08-12T00:22:59;6.25;;;5.65;;
64052;SDS011;50299;49.524;8.536;2023-08-12T00:25:25;6.28;;;5.68;;
64052;SDS011;50299;49.524;8.536;2023-08-12T00:27:52;7.45;;;5.93;;
64052;SDS011;50299;49.524;8.536;2023-08-12T00:30:18;6.32;;;5.72;;
64052;SDS011;50299;49.524;8.536;2023-08-12T00:32:45;6.32;;;5.63;;
64052;SDS011;50299;49.524;8.536;2023-08-12T00:35:11;6.82;;;6.22;;
64052;SDS011;50299;49.524;8.536;2023-08-12T00:37:38;6.68;;;6.07;;
64052;SDS011;50299;49.524;8.536;2023-08-12T00:40:05;6.63;;;6.07;;
64052;SDS011;50299;49.524;8.536;2023-08-12T00:42:32;6.80;;;6.10;;
64052;SDS011;50299;49.524;8.536;2023-08-12T00:44:59;7.10;;;6.50;;
64052;SDS011;50299;49.524;8.536;2023-08-12T00:47:26;6.22;;;5.72;;
64052;SDS011;50299;49.524;8.536;2023-08-12T00:49:53;5.75;;;4.80;;
64052;SDS011;50299;49.524;8.536;2023-08-12T00:52:22;6.50;;;5.90;;
64052;SDS011;50299;49.524;8.536;2023-08-12T00:54:49;6.10;;;5.57;;
64052;SDS011;50299;49.524;8.536;2023-08-12T00:57:15;11.00;;;6.03;;
64052;SDS011;50299;49.524;8.536;2023-08-12T00:59:42;6.47;;;5.88;;
64052;SDS011;50299;49.524;8.536;2023-08-12T01:02:10;6.43;;;5.82;;
64052;SDS011;50299;49.524;8.536;2023-08-12T01:04:38;7.20;;;6.30;;
64052;SDS011;50299;49.524;8.536;2023-08-12T01:07:05;8.18;;;5.82;;
64052;SDS011;50299;49.524;8.536;2023-08-12T01:09:32;7.88;;;5.93;;
64052;SDS011;50299;49.524;8.536;2023-08-12T01:12:03;6.80;;;5.93;;
64052;SDS011;50299;49.524;8.536;2023-08-12T01:14:41;6.78;;;6.18;;
64052;SDS011;50299;49.524;8.536;2023-08-12T01:17:14;7.22;;;6.03;;
64052;SDS011;50299;49.524;8.536;2023-08-12T01:19:41;7.57;;;5.80;;
64052;SDS011;50299;49.524;8.536;2023-08-12T01:22:10;6.50;;;5.78;;
64052;SDS011;50299;49.524;8.536;2023-08-12T01:24:41;7.00;;;6.30;;
64052;SDS011;50299;49.524;8.536;2023-08-12T01:27:10;6.28;;;5.75;;
64052;SDS011;50299;49.524;8.536;2023-08-12T01:29:39;6.40;;;5.88;;
64052;SDS011;50299;49.524;8.536;2023-08-12T01:32:14;6.93;;;6.18;;
64052;SDS011;50299;49.524;8.536;2023-08-12T01:37:47;7.00;;;6.07;;
64052;SDS011;50299;49.524;8.536;2023-08-12T01:40:17;7.07;;;6.50;;
64052;SDS011;50299;49.524;8.536;2023-08-12T01:42:45;6.57;;;6.07;;
64052;SDS011;50299;49.524;8.536;2023-08-12T01:45:12;6.35;;;5.43;;
64052;SDS011;50299;49.524;8.536;2023-08-12T01:47:38;7.72;;;6.57;;
64052;SDS011;50299;49.524;8.536;2023-08-12T01:50:09;6.80;;;6.18;;
64052;SDS011;50299;49.524;8.536;2023-08-12T01:52:36;6.82;;;6.22;;
64052;SDS011;50299;49.524;8.536;2023-08-12T01:55:02;8.18;;;5.55;;
64052;SDS011;50299;49.524;8.536;2023-08-12T01:57:29;7.22;;;6.47;;
64052;SDS011;50299;49.524;8.536;2023-08-12T01:59:55;6.60;;;6.10;;
64052;SDS011;50299;49.524;8.536;2023-08-12T02:02:22;7.28;;;6.65;;
64052;SDS011;50299;49.524;8.536;2023-08-12T02:04:49;7.15;;;6.55;;
64052;SDS011;50299;49.524;8.536;2023-08-12T02:07:15;7.15;;;6.13;;
64052;SDS011;50299;49.524;8.536;2023-08-12T02:09:42;7.03;;;6.43;;
64052;SDS011;50299;49.524;8.536;2023-08-12T02:12:08;6.85;;;6.25;;
64052;SDS011;50299;49.524;8.536;2023-08-12T02:14:34;7.13;;;6.53;;
64052;SDS011;50299;49.524;8.536;2023-08-12T02:17:03;6.88;;;6.15;;
64052;SDS011;50299;49.524;8.536;2023-08-12T02:19:32;7.32;;;6.65;;
64052;SDS011;50299;49.524;8.536;2023-08-12T02:22:00;8.98;;;6.53;;
64052;SDS011;50299;49.524;8.536;2023-08-12T02:24:28;9.35;;;6.75;;
64052;SDS011;50299;49.524;8.536;2023-08-12T02:26:54;7.05;;;6.45;;
64052;SDS011;50299;49.524;8.536;2023-08-12T02:29:21;7.93;;;7.15;;
64052;SDS011;50299;49.524;8.536;2023-08-12T02:31:47;7.18;;;6.47;;
64052;SDS011;50299;49.524;8.536;2023-08-12T02:34:14;7.28;;;6.68;;
64052;SDS011;50299;49.524;8.536;2023-08-12T02:36:40;7.20;;;6.63;;
64052;SDS011;50299;49.524;8.536;2023-08-12T02:39:07;7.20;;;6.50;;
64052;SDS011;50299;49.524;8.536;2023-08-12T02:41:33;8.00;;;5.88;;
64052;SDS011;50299;49.524;8.536;2023-08-12T02:44:00;6.95;;;6.35;;
64052;SDS011;50299;49.524;8.536;2023-08-12T02:46:26;7.25;;;6.55;;
64052;SDS011;50299;49.524;8.536;2023-08-12T02:48:52;7.22;;;6.63;;
64052;SDS011;50299;49.524;8.536;2023-08-12T02:51:19;6.95;;;6.35;;
64052;SDS011;50299;49.524;8.536;2023-08-12T02:53:45;9.45;;;6.93;;
64052;SDS011;50299;49.524;8.536;2023-08-12T02:56:12;7.30;;;6.60;;
64052;SDS011;50299;49.524;8.536;2023-08-12T02:58:39;6.70;;;6.10;;
64052;SDS011;50299;49.524;8.536;2023-08-12T03:01:05;7.15;;;6.57;;
64052;SDS011;50299;49.524;8.536;2023-08-12T03:03:32;7.82;;;7.18;;
64052;SDS011;50299;49.524;8.536;2023-08-12T03:05:59;9.55;;;7.13;;
64052;SDS011;50299;49.524;8.536;2023-08-12T03:08:25;9.10;;;7.18;;
64052;SDS011;50299;49.524;8.536;2023-08-12T03:10:58;7.68;;;7.07;;
64052;SDS011;50299;49.524;8.536;2023-08-12T03:13:26;7.95;;;7.07;;
64052;SDS011;50299;49.524;8.536;2023-08-12T03:15:53;7.53;;;6.82;;
64052;SDS011;50299;49.524;8.536;2023-08-12T03:18:20;9.25;;;7.70;;
64052;SDS011;50299;49.524;8.536;2023-08-12T03:20:47;7.75;;;7.00;;
64052;SDS011;50299;49.524;8.536;2023-08-12T03:23:14;7.97;;;7.32;;
64052;SDS011;50299;49.524;8.536;2023-08-12T03:25:40;7.85;;;7.00;;
64052;SDS011;50299;49.524;8.536;2023-08-12T03:28:07;7.68;;;6.97;;
64052;SDS011;50299;49.524;8.536;2023-08-12T03:30:34;7.40;;;6.65;;
64052;SDS011;50299;49.524;8.536;2023-08-12T03:33:00;8.63;;;7.25;;
64052;SDS011;50299;49.524;8.536;2023-08-12T03:35:26;10.27;;;7.78;;
64052;SDS011;50299;49.524;8.536;2023-08-12T03:37:53;7.43;;;6.68;;
64052;SDS011;50299;49.524;8.536;2023-08-12T03:40:22;7.00;;;6.40;;
64052;SDS011;50299;49.524;8.536;2023-08-12T03:42:49;6.82;;;6.22;;
64052;SDS011;50299;49.524;8.536;2023-08-12T03:45:15;7.68;;;6.88;;
64052;SDS011;50299;49.524;8.536;2023-08-12T03:47:42;8.10;;;7.40;;
64052;SDS011;50299;49.524;8.536;2023-08-12T03:50:08;8.43;;;7.63;;
64052;SDS011;50299;49.524;8.536;2023-08-12T03:52:35;8.15;;;7.35;;
64052;SDS011;50299;49.524;8.536;2023-08-12T03:55:01;8.25;;;7.45;;
64052;SDS011;50299;49.524;8.536;2023-08-12T03:57:28;7.53;;;6.93;;
64052;SDS011;50299;49.524;8.536;2023-08-12T03:59:54;7.10;;;6.50;;
64052;SDS011;50299;49.524;8.536;2023-08-12T04:02:21;8.40;;;7.60;;
64052;SDS011;50299;49.524;8.536;2023-08-12T04:04:48;8.65;;;7.72;;
64052;SDS011;50299;49.524;8.536;2023-08-12T04:07:14;9.30;;;8.43;;
64052;SDS011;50299;49.524;8.536;2023-08-12T04:09:41;8.43;;;7.63;;
64052;SDS011;50299;49.524;8.536;2023-08-12T04:12:07;9.05;;;8.15;;
64052;SDS011;50299;49.524;8.536;2023-08-12T04:14:33;9.32;;;7.63;;
64052;SDS011;50299;49.524;8.536;2023-08-12T04:17:00;9.75;;;7.63;;
64052;SDS011;50299;49.524;8.536;2023-08-12T04:19:26;9.00;;;8.10;;
64052;SDS011;50299;49.524;8.536;2023-08-12T04:21:53;8.30;;;7.45;;
64052;SDS011;50299;49.524;8.536;2023-08-12T04:24:19;8.13;;;7.32;;
64052;SDS011;50299;49.524;8.536;2023-08-12T04:26:46;8.65;;;7.72;;
64052;SDS011;50299;49.524;8.536;2023-08-12T04:29:13;7.63;;;7.00;;
64052;SDS011;50299;49.524;8.536;2023-08-12T04:31:40;8.30;;;7.50;;
64052;SDS011;50299;49.524;8.536;2023-08-12T04:34:06;7.68;;;7.15;;
64052;SDS011;50299;49.524;8.536;2023-08-12T04:36:33;8.45;;;7.65;;
64052;SDS011;50299;49.524;8.536;2023-08-12T04:38:59;8.15;;;7.40;;
64052;SDS011;50299;49.524;8.536;2023-08-12T04:41:26;6.85;;;6.20;;
64052;SDS011;50299;49.524;8.536;2023-08-12T04:43:52;8.48;;;7.68;;
64052;SDS011;50299;49.524;8.536;2023-08-12T04:46:19;7.53;;;6.82;;
64052;SDS011;50299;49.524;8.536;2023-08-12T04:48:45;8.00;;;7.40;;
64052;SDS011;50299;49.524;8.536;2023-08-12T04:51:12;7.82;;;7.13;;
64052;SDS011;50299;49.524;8.536;2023-08-12T04:53:38;7.75;;;7.10;;
64052;SDS011;50299;49.524;8.536;2023-08-12T04:56:05;8.02;;;7.43;;
64052;SDS011;50299;49.524;8.536;2023-08-12T04:58:31;6.70;;;6.05;;
64052;SDS011;50299;49.524;8.536;2023-08-12T05:00:58;8.02;;;7.43;;
64052;SDS011;50299;49.524;8.536;2023-08-12T05:03:24;8.27;;;7.47;;
64052;SDS011;50299;49.524;8.536;2023-08-12T05:05:51;7.80;;;7.10;;
64052;SDS011;50299;49.524;8.536;2023-08-12T05:08:18;8.00;;;7.22;;
64052;SDS011;50299;49.524;8.536;2023-08-12T05:10:48;8.30;;;7.60;;
64052;SDS011;50299;49.524;8.536;2023-08-12T05:13:15;8.35;;;7.55;;
64052;SDS011;50299;49.524;8.536;2023-08-12T05:15:44;7.70;;;7.10;;
64052;SDS011;50299;49.524;8.536;2023-08-12T05:18:11;8.05;;;7.43;;
64052;SDS011;50299;49.524;8.536;2023-08-12T05:20:38;7.38;;;6.78;;
64052;SDS011;50299;49.524;8.536;2023-08-12T05:23:09;8.27;;;7.53;;
64052;SDS011;50299;49.524;8.536;2023-08-12T05:25:36;8.15;;;7.18;;
64052;SDS011;50299;49.524;8.536;2023-08-12T05:28:02;7.60;;;7.00;;
64052;SDS011;50299;49.524;8.536;2023-08-12T05:30:29;8.15;;;7.45;;
64052;SDS011;50299;49.524;8.536;2023-08-12T05:32:55;8.10;;;7.47;;
64052;SDS011;50299;49.524;8.536;2023-08-12T05:35:22;8.20;;;7.45;;
64052;SDS011;50299;49.524;8.536;2023-08-12T05:37:48;8.45;;;7.65;;
64052;SDS011;50299;49.524;8.536;2023-08-12T05:40:15;7.85;;;7.18;;
64052;SDS011;50299;49.524;8.536;2023-08-12T05:42:41;7.68;;;6.57;;
64052;SDS011;50299;49.524;8.536;2023-08-12T05:45:08;7.72;;;7.03;;
64052;SDS011;50299;49.524;8.536;2023-08-12T05:47:34;6.65;;;6.07;;
64052;SDS011;50299;49.524;8.536;2023-08-12T05:50:01;6.75;;;6.25;;
64052;SDS011;50299;49.524;8.536;2023-08-12T05:52:27;8.10;;;7.30;;
64052;SDS011;50299;49.524;8.536;2023-08-12T05:54:54;7.80;;;7.10;;
64052;SDS011;50299;49.524;8.536;2023-08-12T05:57:21;7.57;;;6.82;;
64052;SDS011;50299;49.524;8.536;2023-08-12T05:59:47;8.23;;;7.47;;
64052;SDS011;50299;49.524;8.536;2023-08-12T06:02:14;8.20;;;7.40;;
64052;SDS011;50299;49.524;8.536;2023-08-12T06:04:41;8.02;;;7.22;;
64052;SDS011;50299;49.524;8.536;2023-08-12T06:07:07;7.35;;;6.65;;
64052;SDS011;50299;49.524;8.536;2023-08-12T06:09:33;8.23;;;7.53;;
64052;SDS011;50299;49.524;8.536;2023-08-12T06:12:00;7.60;;;6.90;;
64052;SDS011;50299;49.524;8.536;2023-08-12T06:14:27;6.80;;;6.20;;
64052;SDS011;50299;49.524;8.536;2023-08-12T06:16:54;7.25;;;5.88;;
64052;SDS011;50299;49.524;8.536;2023-08-12T06:19:24;7.15;;;5.95;;
64052;SDS011;50299;49.524;8.536;2023-08-12T06:21:50;6.47;;;5.88;;
64052;SDS011;50299;49.524;8.536;2023-08-12T06:24:17;6.32;;;5.72;;
64052;SDS011;50299;49.524;8.536;2023-08-12T06:26:43;6.10;;;5.57;;
64052;SDS011;50299;49.524;8.536;2023-08-12T06:29:10;6.60;;;5.63;;
64052;SDS011;50299;49.524;8.536;2023-08-12T06:31:36;6.30;;;5.55;;
64052;SDS011;50299;49.524;8.536;2023-08-12T06:34:03;5.72;;;5.22;;
64052;SDS011;50299;49.524;8.536;2023-08-12T06:36:29;5.72;;;5.18;;
64052;SDS011;50299;49.524;8.536;2023-08-12T06:38:56;7.20;;;5.88;;
64052;SDS011;50299;49.524;8.536;2023-08-12T06:41:23;7.28;;;6.00;;
64052;SDS011;50299;49.524;8.536;2023-08-12T06:43:49;6.47;;;5.10;;
64052;SDS011;50299;49.524;8.536;2023-08-12T06:46:16;6.00;;;5.45;;
64052;SDS011;50299;49.524;8.536;2023-08-12T06:48:42;6.15;;;5.63;;
64052;SDS011;50299;49.524;8.536;2023-08-12T06:51:09;5.60;;;4.90;;
64052;SDS011;50299;49.524;8.536;2023-08-12T06:53:39;6.55;;;5.90;;
64052;SDS011;50299;49.524;8.536;2023-08-12T06:56:06;6.20;;;5.65;;
64052;SDS011;50299;49.524;8.536;2023-08-12T06:58:32;6.53;;;5.78;;
64052;SDS011;50299;49.524;8.536;2023-08-12T07:00:59;6.20;;;5.60;;
64052;SDS011;50299;49.524;8.536;2023-08-12T07:03:25;7.00;;;6.32;;
64052;SDS011;50299;49.524;8.536;2023-08-12T07:05:53;6.05;;;5.45;;
64052;SDS011;50299;49.524;8.536;2023-08-12T07:08:20;7.85;;;6.22;;
64052;SDS011;50299;49.524;8.536;2023-08-12T07:10:46;6.55;;;6.05;;
64052;SDS011;50299;49.524;8.536;2023-08-12T07:13:13;6.32;;;5.75;;
64052;SDS011;50299;49.524;8.536;2023-08-12T07:15:39;6.25;;;5.65;;
64052;SDS011;50299;49.524;8.536;2023-08-12T07:18:06;6.55;;;6.03;;
64052;SDS011;50299;49.524;8.536;2023-08-12T07:20:33;6.25;;;5.75;;
64052;SDS011;50299;49.524;8.536;2023-08-12T07:22:59;6.50;;;5.90;;
64052;SDS011;50299;49.524;8.536;2023-08-12T07:25:25;6.38;;;5.82;;
64052;SDS011;50299;49.524;8.536;2023-08-12T07:27:52;7.15;;;6.45;;
64052;SDS011;50299;49.524;8.536;2023-08-12T07:30:18;7.20;;;5.97;;
64052;SDS011;50299;49.524;8.536;2023-08-12T07:32:45;6.85;;;6.18;;
64052;SDS011;50299;49.524;8.536;2023-08-12T07:35:11;6.88;;;5.75;;
64052;SDS011;50299;49.524;8.536;2023-08-12T07:37:38;6.30;;;5.75;;
64052;SDS011;50299;49.524;8.536;2023-08-12T07:40:04;7.20;;;6.47;;
64052;SDS011;50299;49.524;8.536;2023-08-12T07:42:31;7.07;;;6.40;;
64052;SDS011;50299;49.524;8.536;2023-08-12T07:44:58;6.75;;;6.15;;
64052;SDS011;50299;49.524;8.536;2023-08-12T07:47:24;7.93;;;7.10;;
64052;SDS011;50299;49.524;8.536;2023-08-12T07:49:50;7.03;;;6.40;;
64052;SDS011;50299;49.524;8.536;2023-08-12T07:52:17;8.05;;;6.88;;
64052;SDS011;50299;49.524;8.536;2023-08-12T07:54:43;9.55;;;7.70;;
64052;SDS011;50299;49.524;8.536;2023-08-12T07:57:10;9.10;;;8.07;;
64052;SDS011;50299;49.524;8.536;2023-08-12T07:59:36;8.57;;;7.88;;
64052;SDS011;50299;49.524;8.536;2023-08-12T08:02:03;9.57;;;8.10;;
64052;SDS011;50299;49.524;8.536;2023-08-12T08:04:29;6.93;;;6.22;;
64052;SDS011;50299;49.524;8.536;2023-08-12T08:06:56;7.28;;;6.30;;
64052;SDS011;50299;49.524;8.536;2023-08-12T08:09:26;6.75;;;6.15;;
64052;SDS011;50299;49.524;8.536;2023-08-12T08:11:52;6.47;;;5.97;;
64052;SDS011;50299;49.524;8.536;2023-08-12T08:14:21;8.00;;;7.20;;
64052;SDS011;50299;49.524;8.536;2023-08-12T08:16:47;7.70;;;7.10;;
64052;SDS011;50299;49.524;8.536;2023-08-12T08:19:14;8.27;;;7.47;;
64052;SDS011;50299;49.524;8.536;2023-08-12T08:21:40;8.27;;;7.57;;
64052;SDS011;50299;49.524;8.536;2023-08-12T08:24:07;8.13;;;7.40;;
64052;SDS011;50299;49.524;8.536;2023-08-12T08:26:34;8.32;;;7.53;;
64052;SDS011;50299;49.524;8.536;2023-08-12T08:29:01;6.63;;;6.03;;
64052;SDS011;50299;49.524;8.536;2023-08-12T08:31:27;7.57;;;6.93;;
64052;SDS011;50299;49.524;8.536;2023-08-12T08:33:54;6.95;;;6.35;;
64052;SDS011;50299;49.524;8.536;2023-08-12T08:36:20;6.80;;;6.10;;
64052;SDS011;50299;49.524;8.536;2023-08-12T08:38:47;6.38;;;5.75;;
64052;SDS011;50299;49.524;8.536;2023-08-12T08:41:13;7.13;;;6.43;;
64052;SDS011;50299;49.524;8.536;2023-08-12T08:43:43;6.18;;;4.72;;
64052;SDS011;50299;49.524;8.536;2023-08-12T08:46:15;5.05;;;4.65;;
64052;SDS011;50299;49.524;8.536;2023-08-12T08:48:43;4.78;;;4.38;;
64052;SDS011;50299;49.524;8.536;2023-08-12T08:51:12;5.30;;;4.80;;
64052;SDS011;50299;49.524;8.536;2023-08-12T08:53:39;8.00;;;5.57;;
64052;SDS011;50299;49.524;8.536;2023-08-12T08:56:08;5.70;;;5.30;;
64052;SDS011;50299;49.524;8.536;2023-08-12T08:58:42;6.68;;;6.07;;
64052;SDS011;50299;49.524;8.536;2023-08-12T09:01:09;6.07;;;5.60;;
64052;SDS011;50299;49.524;8.536;2023-08-12T09:03:37;5.75;;;5.25;;
64052;SDS011;50299;49.524;8.536;2023-08-12T09:06:04;5.90;;;5.40;;
64052;SDS011;50299;49.524;8.536;2023-08-12T09:08:31;5.18;;;4.68;;
64052;SDS011;50299;49.524;8.536;2023-08-12T09:10:59;6.18;;;4.47;;
64052;SDS011;50299;49.524;8.536;2023-08-12T09:13:27;4.68;;;4.13;;
64052;SDS011;50299;49.524;8.536;2023-08-12T09:15:55;5.43;;;4.97;;
64052;SDS011;50299;49.524;8.536;2023-08-12T09:18:22;5.93;;;5.30;;
64052;SDS011;50299;49.524;8.536;2023-08-12T09:20:50;5.53;;;5.10;;
64052;SDS011;50299;49.524;8.536;2023-08-12T09:23:17;5.38;;;4.88;;
64052;SDS011;50299;49.524;8.536;2023-08-12T09:25:46;5.93;;;4.60;;
64052;SDS011;50299;49.524;8.536;2023-08-12T09:28:12;5.63;;;4.93;;
64052;SDS011;50299;49.524;8.536;2023-08-12T09:30:39;5.65;;;5.10;;
64052;SDS011;50299;49.524;8.536;2023-08-12T09:33:07;5.18;;;4.68;;
64052;SDS011;50299;49.524;8.536;2023-08-12T09:35:36;5.38;;;4.80;;
64052;SDS011;50299;49.524;8.536;2023-08-12T09:38:05;5.82;;;5.13;;
64052;SDS011;50299;49.524;8.536;2023-08-12T09:40:34;6.10;;;5.50;;
64052;SDS011;50299;49.524;8.536;2023-08-12T09:43:02;5.47;;;5.05;;
64052;SDS011;50299;49.524;8.536;2023-08-12T09:45:30;5.65;;;5.05;;
64052;SDS011;50299;49.524;8.536;2023-08-12T09:47:59;6.82;;;6.18;;
64052;SDS011;50299;49.524;8.536;2023-08-12T09:50:25;5.13;;;4.72;;
64052;SDS011;50299;49.524;8.536;2023-08-12T09:52:53;6.45;;;5.32;;
64052;SDS011;50299;49.524;8.536;2023-08-12T09:55:22;6.18;;;5.68;;
64052;SDS011;50299;49.524;8.536;2023-08-12T09:57:51;6.38;;;5.88;;
64052;SDS011;50299;49.524;8.536;2023-08-12T10:00:19;5.80;;;5.22;;
64052;SDS011;50299;49.524;8.536;2023-08-12T10:02:48;6.10;;;5.55;;
64052;SDS011;50299;49.524;8.536;2023-08-12T10:05:24;5.88;;;5.38;;
64052;SDS011;50299;49.524;8.536;2023-08-12T10:07:54;5.72;;;5.18;;
64052;SDS011;50299;49.524;8.536;2023-08-12T10:10:21;5.93;;;5.47;;
64052;SDS011;50299;49.524;8.536;2023-08-12T10:12:51;5.90;;;5.30;;
64052;SDS011;50299;49.524;8.536;2023-08-12T10:15:19;6.03;;;5.43;;
64052;SDS011;50299;49.524;8.536;2023-08-12T10:17:47;7.88;;;7.07;;
64052;SDS011;50299;49.524;8.536;2023-08-12T10:20:20;6.97;;;6.28;;
64052;SDS011;50299;49.524;8.536;2023-08-12T10:22:49;6.47;;;5.97;;
64052;SDS011;50299;49.524;8.536;2023-08-12T10:25:17;5.82;;;5.28;;
64052;SDS011;50299;49.524;8.536;2023-08-12T10:27:45;6.93;;;6.25;;
64052;SDS011;50299;49.524;8.536;2023-08-12T10:30:12;5.72;;;4.88;;
64052;SDS011;50299;49.524;8.536;2023-08-12T10:32:40;6.03;;;5.10;;
64052;SDS011;50299;49.524;8.536;2023-08-12T10:35:07;7.10;;;6.45;;
64052;SDS011;50299;49.524;8.536;2023-08-12T10:37:35;43.42;;;10.63;;
64052;SDS011;50299;49.524;8.536;2023-08-12T10:40:02;19.52;;;8.10;;
64052;SDS011;50299;49.524;8.536;2023-08-12T10:42:43;9.23;;;6.05;;
64052;SDS011;50299;49.524;8.536;2023-08-12T10:45:13;6.45;;;5.85;;
64052;SDS011;50299;49.524;8.536;2023-08-12T10:47:41;7.57;;;6.35;;
64052;SDS011;50299;49.524;8.536;2023-08-12T10:50:19;7.90;;;7.13;;
64052;SDS011;50299;49.524;8.536;2023-08-12T10:52:46;9.40;;;6.00;;
64052;SDS011;50299;49.524;8.536;2023-08-12T10:55:17;8.15;;;5.80;;
64052;SDS011;50299;49.524;8.536;2023-08-12T10:57:45;9.45;;;6.97;;
64052;SDS011;50299;49.524;8.536;2023-08-12T11:00:19;7.68;;;6.18;;
64052;SDS011;50299;49.524;8.536;2023-08-12T11:02:49;6.85;;;5.93;;
64052;SDS011;50299;49.524;8.536;2023-08-12T11:05:18;8.68;;;5.95;;
64052;SDS011;50299;49.524;8.536;2023-08-12T11:08:03;7.45;;;6.32;;
64052;SDS011;50299;49.524;8.536;2023-08-12T11:10:33;6.72;;;5.82;;
64052;SDS011;50299;49.524;8.536;2023-08-12T11:13:01;6.93;;;5.72;;
64052;SDS011;50299;49.524;8.536;2023-08-12T11:18:13;6.53;;;4.40;;
64052;SDS011;50299;49.524;8.536;2023-08-12T11:20:40;5.65;;;5.15;;
64052;SDS011;50299;49.524;8.536;2023-08-12T11:23:08;20.15;;;6.75;;
64052;SDS011;50299;49.524;8.536;2023-08-12T11:25:37;24.67;;;8.82;;
64052;SDS011;50299;49.524;8.536;2023-08-12T11:28:06;14.20;;;7.75;;
64052;SDS011;50299;49.524;8.536;2023-08-12T11:30:33;14.35;;;6.93;;
64052;SDS011;50299;49.524;8.536;2023-08-12T11:33:01;9.73;;;5.25;;
64052;SDS011;50299;49.524;8.536;2023-08-12T11:35:28;19.85;;;5.80;;
64052;SDS011;50299;49.524;8.536;2023-08-12T11:37:56;9.73;;;4.50;;
64052;SDS011;50299;49.524;8.536;2023-08-12T11:40:24;8.05;;;4.53;;
64052;SDS011;50299;49.524;8.536;2023-08-12T11:45:20;9.88;;;5.03;;
64052;SDS011;50299;49.524;8.536;2023-08-12T11:47:48;6.30;;;4.22;;
64052;SDS011;50299;49.524;8.536;2023-08-12T11:50:19;8.60;;;5.03;;
64052;SDS011;50299;49.524;8.536;2023-08-12T11:52:46;6.43;;;4.60;;
64052;SDS011;50299;49.524;8.536;2023-08-12T11:55:14;10.45;;;4.55;;
64052;SDS011;50299;49.524;8.536;2023-08-12T11:57:41;4.68;;;4.28;;
64052;SDS011;50299;49.524;8.536;2023-08-12T12:00:10;5.13;;;3.97;;
64052;SDS011;50299;49.524;8.536;2023-08-12T12:05:15;7.07;;;5.50;;
64052;SDS011;50299;49.524;8.536;2023-08-12T12:07:43;7.90;;;6.13;;
64052;SDS011;50299;49.524;8.536;2023-08-12T12:10:13;5.97;;;5.38;;
64052;SDS011;50299;49.524;8.536;2023-08-12T12:12:45;5.95;;;4.90;;
64052;SDS011;50299;49.524;8.536;2023-08-12T12:15:14;4.65;;;4.20;;
64052;SDS011;50299;49.524;8.536;2023-08-12T12:17:42;5.25;;;4.65;;
64052;SDS011;50299;49.524;8.536;2023-08-12T12:22:37;5.90;;;4.57;;
64052;SDS011;50299;49.524;8.536;2023-08-12T12:25:08;6.80;;;6.10;;
64052;SDS011;50299;49.524;8.536;2023-08-12T12:27:37;7.55;;;5.97;;
64052;SDS011;50299;49.524;8.536;2023-08-12T12:30:07;7.38;;;6.13;;
64052;SDS011;50299;49.524;8.536;2023-08-12T12:32:35;9.15;;;7.15;;
64052;SDS011;50299;49.524;8.536;2023-08-12T12:35:02;11.95;;;7.32;;
64052;SDS011;50299;49.524;8.536;2023-08-12T12:37:30;6.97;;;6.28;;
64052;SDS011;50299;49.524;8.536;2023-08-12T12:39:56;5.95;;;5.43;;
64052;SDS011;50299;49.524;8.536;2023-08-12T12:42:23;6.00;;;5.30;;
64052;SDS011;50299;49.524;8.536;2023-08-12T12:44:49;5.68;;;4.38;;
64052;SDS011;50299;49.524;8.536;2023-08-12T12:47:16;4.18;;;3.72;;
64052;SDS011;50299;49.524;8.536;2023-08-12T12:52:12;4.75;;;3.90;;
64052;SDS011;50299;49.524;8.536;2023-08-12T12:54:39;5.43;;;4.65;;
64052;SDS011;50299;49.524;8.536;2023-08-12T12:57:05;6.00;;;4.65;;
64052;SDS011;50299;49.524;8.536;2023-08-12T12:59:32;7.15;;;4.88;;
64052;SDS011;50299;49.524;8.536;2023-08-12T13:01:58;9.23;;;5.95;;
64052;SDS011;50299;49.524;8.536;2023-08-12T13:04:25;6.07;;;5.30;;
64052;SDS011;50299;49.524;8.536;2023-08-12T13:06:52;4.68;;;4.18;;
64052;SDS011;50299;49.524;8.536;2023-08-12T13:09:18;4.40;;;4.00;;
64052;SDS011;50299;49.524;8.536;2023-08-12T13:11:45;5.38;;;4.72;;
64052;SDS011;50299;49.524;8.536;2023-08-12T13:14:11;7.00;;;5.68;;
64052;SDS011;50299;49.524;8.536;2023-08-12T13:16:37;5.15;;;4.65;;
64052;SDS011;50299;49.524;8.536;2023-08-12T13:19:04;5.30;;;4.80;;
64052;SDS011;50299;49.524;8.536;2023-08-12T13:21:30;5.78;;;4.35;;
64052;SDS011;50299;49.524;8.536;2023-08-12T13:23:58;6.07;;;4.82;;
64052;SDS011;50299;49.524;8.536;2023-08-12T13:26:25;4.25;;;3.85;;
64052;SDS011;50299;49.524;8.536;2023-08-12T13:28:51;4.38;;;4.00;;
64052;SDS011;50299;49.524;8.536;2023-08-12T13:31:18;4.32;;;3.78;;
64052;SDS011;50299;49.524;8.536;2023-08-12T13:33:44;3.65;;;3.30;;
64052;SDS011;50299;49.524;8.536;2023-08-12T13:36:11;3.25;;;3.05;;
64052;SDS011;50299;49.524;8.536;2023-08-12T13:38:38;3.53;;;3.20;;
64052;SDS011;50299;49.524;8.536;2023-08-12T13:41:04;3.58;;;2.90;;
64052;SDS011;50299;49.524;8.536;2023-08-12T13:43:31;2.95;;;2.65;;
64052;SDS011;50299;49.524;8.536;2023-08-12T13:45:57;2.90;;;2.67;;
64052;SDS011;50299;49.524;8.536;2023-08-12T13:48:24;3.25;;;2.83;;
64052;SDS011;50299;49.524;8.536;2023-08-12T13:50:50;3.05;;;2.80;;
64052;SDS011;50299;49.524;8.536;2023-08-12T13:53:18;2.92;;;2.70;;
64052;SDS011;50299;49.524;8.536;2023-08-12T13:55:45;2.80;;;2.60;;
64052;SDS011;50299;49.524;8.536;2023-08-12T13:58:12;4.35;;;2.63;;
64052;SDS011;50299;49.524;8.536;2023-08-12T14:00:38;3.00;;;2.80;;
64052;SDS011;50299;49.524;8.536;2023-08-12T14:03:04;3.42;;;3.13;;
64052;SDS011;50299;49.524;8.536;2023-08-12T14:05:31;3.17;;;2.88;;
64052;SDS011;50299;49.524;8.536;2023-08-12T14:07:58;4.43;;;2.75;;
64052;SDS011;50299;49.524;8.536;2023-08-12T14:10:25;3.53;;;2.72;;
64052;SDS011;50299;49.524;8.536;2023-08-12T14:12:51;5.75;;;2.75;;
64052;SDS011;50299;49.524;8.536;2023-08-12T14:15:18;3.30;;;3.05;;
64052;SDS011;50299;49.524;8.536;2023-08-12T14:17:45;3.75;;;3.13;;
64052;SDS011;50299;49.524;8.536;2023-08-12T14:20:11;2.80;;;2.60;;
64052;SDS011;50299;49.524;8.536;2023-08-12T14:22:41;3.15;;;2.85;;
64052;SDS011;50299;49.524;8.536;2023-08-12T14:25:09;4.25;;;2.85;;
64052;SDS011;50299;49.524;8.536;2023-08-12T14:27:37;2.67;;;2.47;;
64052;SDS011;50299;49.524;8.536;2023-08-12T14:30:04;2.90;;;2.60;;
64052;SDS011;50299;49.524;8.536;2023-08-12T14:32:31;3.10;;;2.80;;
64052;SDS011;50299;49.524;8.536;2023-08-12T14:34:57;3.63;;;3.05;;
64052;SDS011;50299;49.524;8.536;2023-08-12T14:37:24;3.20;;;2.90;;
64052;SDS011;50299;49.524;8.536;2023-08-12T14:39:50;4.03;;;2.88;;
64052;SDS011;50299;49.524;8.536;2023-08-12T14:42:17;4.85;;;3.30;;
64052;SDS011;50299;49.524;8.536;2023-08-12T14:44:43;3.38;;;3.08;;
64052;SDS011;50299;49.524;8.536;2023-08-12T14:47:10;3.05;;;2.80;;
64052;SDS011;50299;49.524;8.536;2023-08-12T14:49:37;3.00;;;2.80;;
64052;SDS011;50299;49.524;8.536;2023-08-12T14:52:03;3.50;;;3.20;;
64052;SDS011;50299;49.524;8.536;2023-08-12T14:54:30;4.00;;;3.20;;
64052;SDS011;50299;49.524;8.536;2023-08-12T14:56:56;5.15;;;3.35;;
64052;SDS011;50299;49.524;8.536;2023-08-12T14:59:23;3.08;;;2.88;;
64052;SDS011;50299;49.524;8.536;2023-08-12T15:01:49;3.45;;;3.08;;
64052;SDS011;50299;49.524;8.536;2023-08-12T15:04:16;3.17;;;2.92;;